Time;durP1;ratioP1;P1;durP2;ratioP2;P2;SDS_P1;SDS_P2;PMS_P1;PMS_P2;Temp;Humidity;BMP_temperature;BMP_pressure;BME280_temperature;BME280_humidity;BME280_pressure;Samples;Min_cycle;Max_cycle;Signal;HPM_P1;HPM_P2
2023/01/06 00:01:07;;;;;;;40.72;27.95;;;10.20;99.90;;;;;;5002447;28;88974;-33
2023/01/06 00:03:34;;;;;;;34.45;22.15;;;10.20;99.90;;;;;;5001404;28;89108;-33
2023/01/06 00:06:01;;;;;;;37.83;24.58;;;10.20;99.90;;;;;;4999749;28;89593;-34
2023/01/06 00:08:26;;;;;;;34.17;24.50;;;10.10;99.90;;;;;;5000812;28;90665;-33
2023/01/06 00:10:53;;;;;;;44.33;26.70;;;10.10;99.90;;;;;;5001221;28;89420;-33
2023/01/06 00:13:18;;;;;;;41.58;23.83;;;10.10;99.90;;;;;;5000389;28;89235;-33
2023/01/06 00:15:44;;;;;;;38.10;23.20;;;10.10;99.90;;;;;;5001047;28;89083;-34
2023/01/06 00:18:10;;;;;;;37.80;24.15;;;10.10;99.90;;;;;;4999956;28;90546;-35
2023/01/06 00:20:35;;;;;;;41.13;26.30;;;10.10;99.90;;;;;;5000649;28;89466;-38
2023/01/06 00:23:02;;;;;;;48.72;28.50;;;10.10;99.90;;;;;;5001164;28;90156;-34
2023/01/06 00:25:27;;;;;;;47.22;26.88;;;10.20;99.90;;;;;;5000541;28;89084;-33
2023/01/06 00:27:54;;;;;;;38.20;25.70;;;10.20;99.90;;;;;;4999933;28;90482;-33
2023/01/06 00:30:20;;;;;;;42.55;27.05;;;10.20;99.90;;;;;;5000171;28;90026;-33
2023/01/06 00:32:46;;;;;;;35.40;24.20;;;10.30;99.90;;;;;;5000471;28;90137;-33
2023/01/06 00:35:11;;;;;;;39.75;27.38;;;10.30;99.90;;;;;;5001060;28;88373;-33
2023/01/06 00:37:37;;;;;;;38.88;24.52;;;10.30;99.90;;;;;;4997668;28;89784;-33
2023/01/06 00:40:03;;;;;;;39.50;25.80;;;10.30;99.90;;;;;;5000539;28;89489;-33
2023/01/06 00:42:28;;;;;;;42.58;25.77;;;10.30;99.90;;;;;;4999040;28;89427;-34
2023/01/06 00:44:54;;;;;;;33.67;24.88;;;10.30;99.90;;;;;;5000525;28;88757;-34
2023/01/06 00:47:20;;;;;;;35.10;25.48;;;10.40;99.90;;;;;;5000187;28;89303;-32
2023/01/06 00:49:46;;;;;;;41.33;25.75;;;10.40;99.90;;;;;;4999628;28;89438;-34
2023/01/06 00:52:11;;;;;;;43.50;24.73;;;10.30;99.90;;;;;;5000490;28;89192;-32
2023/01/06 00:54:37;;;;;;;39.17;24.67;;;10.30;99.90;;;;;;4999430;28;89006;-32
2023/01/06 00:57:05;;;;;;;35.65;22.23;;;10.30;99.90;;;;;;5000654;28;90322;-33
2023/01/06 00:59:30;;;;;;;31.73;23.95;;;10.30;99.90;;;;;;5000135;28;89393;-35
2023/01/06 01:01:57;;;;;;;31.65;23.80;;;10.40;99.90;;;;;;4999243;28;89801;-34
2023/01/06 01:04:24;;;;;;;31.58;22.85;;;10.40;99.90;;;;;;4999962;28;87593;-33
2023/01/06 01:06:50;;;;;;;33.17;22.77;;;10.40;99.90;;;;;;4999785;28;90144;-32
2023/01/06 01:09:25;;;;;;;29.75;21.15;;;10.30;99.90;;;;;;4999439;28;89539;-35
2023/01/06 01:12:09;;;;;;;23.70;20.48;;;10.40;99.90;;;;;;5000278;28;89252;-35
2023/01/06 01:14:51;;;;;;;32.28;18.67;;;10.40;99.90;;;;;;4999279;28;88163;-34
2023/01/06 01:17:18;;;;;;;18.42;14.95;;;10.40;99.90;;;;;;4999643;28;91163;-32
2023/01/06 01:19:45;;;;;;;21.50;15.52;;;10.50;99.90;;;;;;4998842;28;91400;-33
2023/01/06 01:22:10;;;;;;;25.45;17.27;;;10.50;99.90;;;;;;4999450;28;90343;-34
2023/01/06 01:24:36;;;;;;;20.98;16.83;;;10.40;99.90;;;;;;4999933;28;88673;-34
2023/01/06 01:27:02;;;;;;;22.13;15.20;;;10.40;99.90;;;;;;4999498;28;90211;-33
2023/01/06 01:29:28;;;;;;;19.10;13.63;;;10.40;99.90;;;;;;4999001;28;89763;-35
2023/01/06 01:31:54;;;;;;;20.58;15.13;;;10.40;99.90;;;;;;4999707;28;90424;-34
2023/01/06 01:34:21;;;;;;;19.13;14.73;;;10.30;99.90;;;;;;4999391;28;87460;-33
2023/01/06 01:36:48;;;;;;;24.98;14.45;;;10.40;99.90;;;;;;4999527;28;90295;-35
2023/01/06 01:39:17;;;;;;;23.98;13.82;;;10.30;99.90;;;;;;4998841;28;90103;-34
2023/01/06 01:41:43;;;;;;;19.58;14.43;;;10.30;99.90;;;;;;4999689;28;89615;-34
2023/01/06 01:44:46;;;;;;;15.20;11.88;;;10.30;99.90;;;;;;4998630;28;90164;-34
2023/01/06 01:47:16;;;;;;;20.52;13.43;;;10.20;99.90;;;;;;4999693;28;89945;-33
2023/01/06 01:49:44;;;;;;;20.30;14.30;;;10.30;99.90;;;;;;4999607;28;89595;-33
2023/01/06 01:52:11;;;;;;;21.75;12.82;;;10.30;99.90;;;;;;4999194;28;89887;-33
2023/01/06 01:54:39;;;;;;;14.13;11.48;;;10.30;99.90;;;;;;4998803;28;88264;-35
2023/01/06 01:57:12;;;;;;;23.58;11.88;;;10.30;99.90;;;;;;4998404;28;89184;-33
2023/01/06 01:59:40;;;;;;;17.35;11.63;;;10.30;99.90;;;;;;4998719;28;89309;-33
2023/01/06 02:02:07;;;;;;;15.95;11.25;;;10.20;99.90;;;;;;4999516;28;89379;-32
2023/01/06 02:04:36;;;;;;;14.07;10.95;;;10.20;99.90;;;;;;4981194;28;88850;-34
2023/01/06 02:07:02;;;;;;;20.73;11.48;;;10.20;99.90;;;;;;4998922;28;90322;-32
2023/01/06 02:09:45;;;;;;;13.73;12.27;;;10.30;99.90;;;;;;4999317;28;91100;-34
2023/01/06 02:12:11;;;;;;;12.68;10.52;;;10.30;99.90;;;;;;4999257;28;91074;-34
2023/01/06 02:14:37;;;;;;;17.80;10.82;;;10.20;99.90;;;;;;4998237;28;90423;-34
2023/01/06 02:17:14;;;;;;;17.02;11.27;;;10.30;99.90;;;;;;4996766;28;90678;-33
2023/01/06 02:19:40;;;;;;;14.90;10.73;;;10.30;99.90;;;;;;4998443;28;89245;-35
2023/01/06 02:22:14;;;;;;;18.35;12.00;;;10.30;99.90;;;;;;4999270;28;89484;-32
2023/01/06 02:25:03;;;;;;;16.98;10.63;;;10.30;99.90;;;;;;4998204;28;90865;-33
2023/01/06 02:27:52;;;;;;;13.25;11.20;;;10.30;99.90;;;;;;4986090;28;90194;-33
2023/01/06 02:30:55;;;;;;;14.10;10.38;;;10.30;99.90;;;;;;4998171;28;89845;-34
2023/01/06 02:33:37;;;;;;;17.50;10.90;;;10.30;99.90;;;;;;4998909;28;90987;-33
2023/01/06 02:36:24;;;;;;;15.85;11.10;;;10.20;99.90;;;;;;4997958;28;90107;-33
2023/01/06 02:39:11;;;;;;;14.68;10.13;;;10.20;99.90;;;;;;4997683;28;90426;-33
2023/01/06 02:41:42;;;;;;;14.50;9.55;;;10.20;99.90;;;;;;4998518;28;89694;-33
2023/01/06 02:44:37;;;;;;;18.83;9.75;;;10.20;99.90;;;;;;4999466;28;89367;-35
2023/01/06 02:47:20;;;;;;;9.75;7.65;;;10.30;99.90;;;;;;4998871;28;89072;-33
2023/01/06 02:50:06;;;;;;;19.30;10.65;;;10.30;99.90;;;;;;4998565;28;90156;-34
2023/01/06 02:53:02;;;;;;;11.70;8.02;;;10.20;99.90;;;;;;4997980;28;89764;-32
2023/01/06 02:55:41;;;;;;;10.75;8.43;;;10.30;99.90;;;;;;4989837;28;88366;-33
2023/01/06 02:58:13;;;;;;;15.15;9.35;;;10.20;99.90;;;;;;4999016;28;90045;-35
2023/01/06 03:00:44;;;;;;;11.63;7.65;;;10.30;99.90;;;;;;4999078;28;89726;-33
2023/01/06 03:03:14;;;;;;;17.23;9.57;;;10.30;99.90;;;;;;4998077;28;90704;-33
2023/01/06 03:05:44;;;;;;;12.15;7.57;;;10.30;99.90;;;;;;4997892;28;91197;-33
2023/01/06 03:08:19;;;;;;;12.13;8.27;;;10.30;99.90;;;;;;4998883;28;89894;-32
2023/01/06 03:10:47;;;;;;;12.20;9.02;;;10.20;99.90;;;;;;4998633;28;90353;-32
2023/01/06 03:13:26;;;;;;;9.55;8.55;;;10.30;99.90;;;;;;4999318;28;89623;-32
2023/01/06 03:15:52;;;;;;;8.77;7.88;;;10.30;99.90;;;;;;4998326;28;90156;-33
2023/01/06 03:18:18;;;;;;;9.80;8.65;;;10.30;99.90;;;;;;4998871;28;89224;-32
2023/01/06 03:20:46;;;;;;;12.68;8.68;;;10.30;99.90;;;;;;4998961;28;90286;-32
2023/01/06 03:23:13;;;;;;;11.50;9.53;;;10.30;99.90;;;;;;4998867;28;89989;-35
2023/01/06 03:25:38;;;;;;;13.65;8.88;;;10.30;99.90;;;;;;4998235;28;89900;-34
2023/01/06 03:28:04;;;;;;;10.63;9.23;;;10.30;99.90;;;;;;4997541;28;89028;-33
2023/01/06 03:30:44;;;;;;;13.20;9.48;;;10.40;99.90;;;;;;4998660;28;90401;-34
2023/01/06 03:33:37;;;;;;;10.07;8.65;;;10.30;99.90;;;;;;4998568;28;88893;-33
2023/01/06 03:36:27;;;;;;;9.38;8.35;;;10.30;99.90;;;;;;4998005;28;89249;-32
2023/01/06 03:38:52;;;;;;;12.20;10.07;;;10.30;99.90;;;;;;4997222;28;87559;-33
2023/01/06 03:44:29;;;;;;;;;;;10.30;99.90;;;;;;4999005;28;90038;-36
2023/01/06 03:47:04;;;;;;;15.93;12.30;;;10.30;99.90;;;;;;5000073;28;88743;-35
2023/01/06 03:49:35;;;;;;;13.27;10.88;;;10.30;99.90;;;;;;4997366;28;88743;-34
2023/01/06 03:52:36;;;;;;;14.95;13.50;;;10.30;99.90;;;;;;4997621;28;90282;-33
2023/01/06 03:55:04;;;;;;;19.65;13.85;;;10.30;99.90;;;;;;4950960;28;90854;-35
2023/01/06 03:57:34;;;;;;;16.83;13.82;;;10.40;99.90;;;;;;4998015;28;89875;-33
2023/01/06 04:00:21;;;;;;;18.10;14.43;;;10.30;99.90;;;;;;4998011;28;89638;-34
2023/01/06 04:02:47;;;;;;;22.52;16.40;;;10.30;99.90;;;;;;4996067;28;90318;-35
2023/01/06 04:05:19;;;;;;;22.55;16.60;;;10.30;99.90;;;;;;4997137;28;89906;-32
2023/01/06 04:07:45;;;;;;;20.02;16.15;;;10.30;99.90;;;;;;4997252;28;90139;-33
2023/01/06 04:10:12;;;;;;;19.20;15.95;;;10.40;99.90;;;;;;4997771;28;89536;-35
2023/01/06 04:12:38;;;;;;;20.88;16.25;;;10.40;99.90;;;;;;4997240;28;89607;-35
2023/01/06 04:15:12;;;;;;;20.05;17.00;;;10.40;99.90;;;;;;4997113;28;90039;-34
2023/01/06 04:17:39;;;;;;;17.70;14.88;;;10.40;99.90;;;;;;4997055;28;89392;-34
2023/01/06 04:20:06;;;;;;;17.27;14.38;;;10.30;99.90;;;;;;4999978;28;89683;-35
2023/01/06 04:22:32;;;;;;;16.10;14.30;;;10.30;99.90;;;;;;4987764;28;89799;-33
2023/01/06 04:24:58;;;;;;;17.95;16.10;;;10.30;99.90;;;;;;4999915;28;90185;-34
2023/01/06 04:27:24;;;;;;;15.18;13.52;;;10.30;99.90;;;;;;5000754;28;90307;-32
2023/01/06 04:29:49;;;;;;;21.98;15.25;;;10.30;99.90;;;;;;5000334;28;88949;-32
2023/01/06 04:32:15;;;;;;;17.00;14.02;;;10.30;99.90;;;;;;5000492;28;90244;-36
2023/01/06 04:34:40;;;;;;;19.63;13.27;;;10.30;99.90;;;;;;4999615;28;89134;-35
2023/01/06 04:37:06;;;;;;;16.15;14.30;;;10.30;99.90;;;;;;5000291;28;89344;-35
2023/01/06 04:39:32;;;;;;;14.95;13.50;;;10.30;99.90;;;;;;5000254;28;89346;-34
2023/01/06 04:41:57;;;;;;;18.13;13.85;;;10.30;99.90;;;;;;4999645;28;90547;-33
2023/01/06 04:44:24;;;;;;;15.45;12.35;;;10.20;99.90;;;;;;5000318;28;90557;-34
2023/01/06 04:46:49;;;;;;;14.27;10.55;;;10.20;99.90;;;;;;5000188;28;90155;-34
2023/01/06 04:49:15;;;;;;;15.45;12.70;;;10.20;99.90;;;;;;5000136;28;90472;-35
2023/01/06 04:51:41;;;;;;;16.58;12.15;;;10.30;99.90;;;;;;5000557;28;90082;-32
2023/01/06 04:54:06;;;;;;;12.20;11.00;;;10.30;99.90;;;;;;5000186;28;89742;-36
2023/01/06 04:56:32;;;;;;;11.68;10.48;;;10.40;99.90;;;;;;5000358;28;89673;-33
2023/01/06 04:58:57;;;;;;;10.48;9.52;;;10.40;99.90;;;;;;4999375;28;89806;-33
2023/01/06 05:01:25;;;;;;;10.43;9.35;;;10.40;99.90;;;;;;4999757;28;90594;-35
2023/01/06 05:03:50;;;;;;;11.10;10.07;;;10.40;99.90;;;;;;5001040;28;89647;-34
2023/01/06 05:06:17;;;;;;;10.70;9.63;;;10.40;99.90;;;;;;4999313;28;88276;-34
2023/01/06 05:08:43;;;;;;;10.00;9.10;;;10.30;99.90;;;;;;5000396;28;90290;-33
2023/01/06 05:11:12;;;;;;;11.77;9.27;;;10.30;99.90;;;;;;4986949;28;89185;-34
2023/01/06 05:13:38;;;;;;;12.63;8.55;;;10.40;99.90;;;;;;4999586;28;89895;-34
2023/01/06 05:16:09;;;;;;;9.95;8.93;;;10.40;99.90;;;;;;5000593;28;90004;-36
2023/01/06 05:18:35;;;;;;;9.27;8.38;;;10.40;99.90;;;;;;5000366;28;90208;-35
2023/01/06 05:21:01;;;;;;;9.13;8.27;;;10.30;99.90;;;;;;5000478;28;90309;-35
2023/01/06 05:23:26;;;;;;;9.48;8.43;;;10.30;99.90;;;;;;4999777;28;89450;-33
2023/01/06 05:25:52;;;;;;;12.65;7.88;;;10.30;99.90;;;;;;5000342;28;89297;-32
2023/01/06 05:28:18;;;;;;;8.43;7.20;;;10.40;99.90;;;;;;5000726;28;89060;-35
2023/01/06 05:30:44;;;;;;;8.13;7.28;;;10.40;99.90;;;;;;4998625;28;90249;-34
2023/01/06 05:33:10;;;;;;;7.07;6.40;;;10.40;99.90;;;;;;4999921;28;90868;-32
2023/01/06 05:35:35;;;;;;;7.40;6.05;;;10.40;99.90;;;;;;4999578;28;90536;-36
2023/01/06 05:38:01;;;;;;;9.15;5.88;;;10.40;99.90;;;;;;4999313;28;88439;-34
2023/01/06 05:40:27;;;;;;;7.47;5.47;;;10.40;99.90;;;;;;4999879;28;90853;-34
2023/01/06 05:42:54;;;;;;;8.18;6.15;;;10.30;99.90;;;;;;4999781;28;88854;-33
2023/01/06 05:45:21;;;;;;;8.93;6.70;;;10.40;99.90;;;;;;5000248;28;88734;-33
2023/01/06 05:47:46;;;;;;;12.95;5.93;;;10.30;99.90;;;;;;4999646;28;88696;-34
2023/01/06 05:50:12;;;;;;;6.20;5.53;;;10.40;99.90;;;;;;4999806;28;90803;-33
2023/01/06 05:52:37;;;;;;;10.15;6.85;;;10.50;99.90;;;;;;5000106;28;89136;-33
2023/01/06 05:55:03;;;;;;;12.43;5.63;;;10.50;99.90;;;;;;4999732;28;89488;-34
2023/01/06 05:57:32;;;;;;;8.82;5.78;;;10.40;99.90;;;;;;4999366;28;90218;-34
2023/01/06 05:59:57;;;;;;;7.57;6.88;;;10.50;99.90;;;;;;4999754;28;89880;-32
2023/01/06 06:02:23;;;;;;;10.15;7.18;;;10.50;99.90;;;;;;4999344;28;89739;-33
2023/01/06 06:04:49;;;;;;;9.50;6.55;;;10.50;99.90;;;;;;5000135;28;89552;-34
2023/01/06 06:07:14;;;;;;;6.47;5.88;;;10.50;99.90;;;;;;4999852;28;89119;-33
2023/01/06 06:09:40;;;;;;;7.93;5.65;;;10.50;99.90;;;;;;4999071;28;90105;-35
2023/01/06 06:12:06;;;;;;;8.23;6.50;;;10.50;99.90;;;;;;4999577;28;88570;-35
2023/01/06 06:14:31;;;;;;;7.32;6.50;;;10.50;99.90;;;;;;4999244;28;90285;-34
2023/01/06 06:16:57;;;;;;;6.93;5.82;;;10.40;99.90;;;;;;5000114;28;89494;-32
2023/01/06 06:19:23;;;;;;;6.15;5.18;;;10.50;99.90;;;;;;4999410;28;90430;-32
2023/01/06 06:21:48;;;;;;;7.15;6.43;;;10.50;99.90;;;;;;4997923;28;90086;-35
2023/01/06 06:24:14;;;;;;;8.35;5.55;;;10.50;99.90;;;;;;4999802;28;90476;-34
2023/01/06 06:26:40;;;;;;;11.07;5.05;;;10.60;99.90;;;;;;4999094;28;88736;-33
2023/01/06 06:29:06;;;;;;;8.25;5.55;;;10.50;99.90;;;;;;5000188;28;91447;-33
2023/01/06 06:31:32;;;;;;;10.93;5.05;;;10.50;99.90;;;;;;4998639;28;88372;-34
2023/01/06 06:33:59;;;;;;;6.32;5.72;;;10.40;99.90;;;;;;4999411;28;89531;-33
2023/01/06 06:36:26;;;;;;;5.30;4.78;;;10.50;99.90;;;;;;4999407;28;88101;-32
2023/01/06 06:38:52;;;;;;;5.53;4.72;;;10.50;99.90;;;;;;4999130;28;90445;-34
2023/01/06 06:41:19;;;;;;;6.90;5.20;;;10.40;99.90;;;;;;4998438;28;89697;-32
2023/01/06 06:43:44;;;;;;;6.40;5.07;;;10.40;99.90;;;;;;4999449;28;89165;-33
2023/01/06 06:46:11;;;;;;;7.70;4.50;;;10.30;99.90;;;;;;4998096;28;89197;-33
2023/01/06 06:48:37;;;;;;;7.32;5.65;;;10.30;99.90;;;;;;4999493;28;89931;-33
2023/01/06 06:51:05;;;;;;;6.00;4.57;;;10.20;99.90;;;;;;4998257;28;90076;-34
2023/01/06 06:53:32;;;;;;;7.45;5.18;;;10.20;99.90;;;;;;4998677;28;89277;-35
2023/01/06 06:55:58;;;;;;;7.97;5.00;;;10.20;99.90;;;;;;4997978;28;89009;-34
2023/01/06 06:58:24;;;;;;;6.75;5.07;;;10.20;99.90;;;;;;4999047;28;90582;-34
2023/01/06 07:00:50;;;;;;;7.03;5.60;;;10.20;99.90;;;;;;4997668;28;89643;-33
2023/01/06 07:03:16;;;;;;;6.80;4.63;;;10.20;99.90;;;;;;4999218;28;89533;-34
2023/01/06 07:05:43;;;;;;;7.47;6.30;;;10.20;99.90;;;;;;4998672;28;89691;-34
2023/01/06 07:08:10;;;;;;;7.07;4.35;;;10.10;99.90;;;;;;4998606;28;90504;-33
2023/01/06 07:10:36;;;;;;;10.60;5.65;;;10.20;99.90;;;;;;4996572;28;90209;-36
2023/01/06 07:13:02;;;;;;;9.63;5.90;;;10.20;99.90;;;;;;4997990;28;90024;-34
2023/01/06 07:15:27;;;;;;;7.43;5.20;;;10.10;99.90;;;;;;4997970;28;88997;-35
2023/01/06 07:17:53;;;;;;;8.10;5.80;;;10.10;99.90;;;;;;4999159;28;90395;-33
2023/01/06 07:20:18;;;;;;;6.95;6.35;;;10.10;99.90;;;;;;4998294;28;89684;-32
2023/01/06 07:22:44;;;;;;;6.50;5.90;;;10.00;99.90;;;;;;4998134;28;89957;-35
2023/01/06 07:25:10;;;;;;;6.80;6.13;;;10.00;99.90;;;;;;4998294;28;88728;-33
2023/01/06 07:27:36;;;;;;;7.25;6.55;;;10.00;99.90;;;;;;4998929;28;89458;-35
2023/01/06 07:30:03;;;;;;;9.07;6.18;;;9.90;99.90;;;;;;4998272;28;90178;-33
2023/01/06 07:32:29;;;;;;;9.40;6.50;;;9.90;99.90;;;;;;4998929;28;90211;-33
2023/01/06 07:34:54;;;;;;;7.18;6.47;;;9.90;99.90;;;;;;4997165;28;89072;-33
2023/01/06 07:37:20;;;;;;;8.40;6.38;;;9.90;99.90;;;;;;4998388;28;90251;-32
2023/01/06 07:39:46;;;;;;;7.93;6.20;;;9.90;99.90;;;;;;4997681;28;89801;-34
2023/01/06 07:42:12;;;;;;;14.88;7.32;;;10.00;99.90;;;;;;4998698;28;90003;-34
2023/01/06 07:44:37;;;;;;;7.10;5.85;;;10.00;99.90;;;;;;4997882;28;89454;-32
2023/01/06 07:47:03;;;;;;;7.55;6.72;;;10.00;99.90;;;;;;4998366;28;90511;-33
2023/01/06 07:49:29;;;;;;;9.90;7.18;;;10.00;99.90;;;;;;4997727;28;90037;-33
2023/01/06 07:51:55;;;;;;;7.60;6.68;;;10.10;99.90;;;;;;4998329;28;89305;-34
2023/01/06 07:54:20;;;;;;;6.40;5.80;;;10.00;99.90;;;;;;5000637;28;88264;-33
2023/01/06 07:56:46;;;;;;;15.90;5.78;;;10.00;99.90;;;;;;5000655;28;90346;-33
2023/01/06 07:59:11;;;;;;;7.32;6.63;;;10.10;99.90;;;;;;5001379;28;90658;-35
2023/01/06 08:01:38;;;;;;;8.15;5.97;;;10.10;99.90;;;;;;5001098;28;90066;-33
2023/01/06 08:04:04;;;;;;;7.53;6.90;;;10.00;99.90;;;;;;5001550;28;88635;-33
2023/01/06 08:06:30;;;;;;;11.85;7.18;;;10.00;99.90;;;;;;5001790;28;90506;-33
2023/01/06 08:08:55;;;;;;;7.45;6.25;;;10.10;99.90;;;;;;5001130;28;89801;-34
2023/01/06 08:11:21;;;;;;;6.53;5.80;;;10.10;99.90;;;;;;4999912;28;89406;-32
2023/01/06 08:13:46;;;;;;;12.57;7.65;;;10.10;99.90;;;;;;5000535;28;88011;-33
2023/01/06 08:16:12;;;;;;;9.68;5.85;;;10.10;99.90;;;;;;5002147;28;91326;-32
2023/01/06 08:18:39;;;;;;;9.05;7.53;;;10.10;99.90;;;;;;5000853;28;89668;-33
2023/01/06 08:21:09;;;;;;;6.50;5.85;;;10.10;99.90;;;;;;5001165;28;89143;-33
2023/01/06 08:23:35;;;;;;;6.32;5.82;;;10.00;99.90;;;;;;5000314;28;89929;-38
2023/01/06 08:26:03;;;;;;;5.88;5.28;;;10.10;99.90;;;;;;5001138;28;90415;-33
2023/01/06 08:28:29;;;;;;;5.47;4.97;;;10.10;99.90;;;;;;5001692;28;89840;-33
2023/01/06 08:30:55;;;;;;;5.97;5.35;;;10.10;99.90;;;;;;5000608;28;90379;-34
2023/01/06 08:33:23;;;;;;;5.03;4.72;;;10.10;99.90;;;;;;5002104;28;90388;-33
2023/01/06 08:35:49;;;;;;;5.55;5.13;;;10.10;99.90;;;;;;5001487;28;90816;-32
2023/01/06 08:38:14;;;;;;;4.57;4.18;;;10.10;99.90;;;;;;5000380;28;90294;-33
2023/01/06 08:40:40;;;;;;;4.43;3.58;;;10.20;99.90;;;;;;5001950;28;88585;-32
2023/01/06 08:43:06;;;;;;;4.68;4.28;;;10.10;99.90;;;;;;5001190;28;88592;-32
2023/01/06 08:45:31;;;;;;;5.18;3.40;;;10.00;99.90;;;;;;5000965;28;90119;-35
2023/01/06 08:47:57;;;;;;;4.53;3.70;;;9.90;99.90;;;;;;5000201;28;90612;-33
2023/01/06 08:50:22;;;;;;;6.72;3.15;;;9.80;99.90;;;;;;5000369;28;89557;-33
2023/01/06 08:52:48;;;;;;;3.30;3.03;;;9.80;99.90;;;;;;5000436;28;89359;-33
2023/01/06 08:55:14;;;;;;;3.80;2.25;;;9.70;99.90;;;;;;4999661;28;89673;-33
2023/01/06 08:57:39;;;;;;;5.57;2.38;;;9.60;99.90;;;;;;5000043;28;89430;-35
2023/01/06 09:00:06;;;;;;;1.83;1.73;;;9.60;99.90;;;;;;5000530;28;89401;-33
2023/01/06 09:02:31;;;;;;;4.70;1.58;;;9.50;99.90;;;;;;4999905;28;89054;-34
2023/01/06 09:04:57;;;;;;;5.18;1.92;;;9.60;99.90;;;;;;4974121;28;89971;-34
2023/01/06 09:07:23;;;;;;;2.03;1.83;;;9.50;99.90;;;;;;4995219;28;90052;-35
2023/01/06 09:09:48;;;;;;;6.03;1.98;;;9.50;99.90;;;;;;5000700;28;88903;-32
2023/01/06 09:12:14;;;;;;;6.18;1.92;;;9.40;99.90;;;;;;4996997;28;90087;-33
2023/01/06 09:14:39;;;;;;;7.85;1.80;;;9.50;99.90;;;;;;4998285;28;90180;-35
2023/01/06 09:17:05;;;;;;;7.05;1.70;;;9.40;99.90;;;;;;4997862;28;90034;-32
2023/01/06 09:19:30;;;;;;;2.13;1.58;;;9.40;99.90;;;;;;4997842;28;89786;-34
2023/01/06 09:21:56;;;;;;;1.95;1.77;;;9.50;99.90;;;;;;4996371;28;89555;-32
2023/01/06 09:24:22;;;;;;;2.10;1.33;;;9.60;99.90;;;;;;4997416;28;90367;-34
2023/01/06 09:26:47;;;;;;;3.55;1.65;;;9.70;99.90;;;;;;4998211;28;89842;-35
2023/01/06 09:29:13;;;;;;;2.88;1.48;;;9.80;99.90;;;;;;4997906;28;88496;-36
2023/01/06 09:31:38;;;;;;;3.05;1.67;;;9.90;99.90;;;;;;4995568;28;89375;-34
2023/01/06 09:34:04;;;;;;;3.72;1.45;;;10.10;99.90;;;;;;4998189;28;90118;-32
2023/01/06 09:36:31;;;;;;;3.25;1.60;;;10.30;99.90;;;;;;4995522;28;90869;-34
2023/01/06 09:38:57;;;;;;;4.45;1.90;;;10.40;99.90;;;;;;5032545;22;89633;-34
2023/01/06 09:41:34;;;;;;;10.50;2.10;;;10.40;99.90;;;;;;4998838;28;89225;-34
2023/01/06 09:44:09;;;;;;;3.00;1.48;;;10.30;99.90;;;;;;4997627;28;90553;-35
2023/01/06 09:46:39;;;;;;;4.10;1.65;;;10.30;99.90;;;;;;4998134;28;89339;-34
2023/01/06 09:49:27;;;;;;;3.05;1.60;;;10.20;99.90;;;;;;4998195;28;89538;-34
2023/01/06 09:52:01;;;;;;;7.43;2.30;;;10.20;99.90;;;;;;4997965;28;88366;-34
2023/01/06 09:54:40;;;;;;;4.00;2.05;;;10.10;99.90;;;;;;4978282;28;89887;-33
2023/01/06 09:57:14;;;;;;;4.20;1.73;;;10.00;99.90;;;;;;4976266;28;89381;-33
2023/01/06 09:59:44;;;;;;;5.10;1.75;;;10.00;99.90;;;;;;4998837;28;90664;-34
2023/01/06 10:02:19;;;;;;;5.45;1.60;;;10.00;99.90;;;;;;4999496;28;89849;-34
2023/01/06 10:04:45;;;;;;;7.75;1.55;;;10.00;99.90;;;;;;4998382;28;90329;-33
2023/01/06 10:07:35;;;;;;;7.55;1.88;;;9.90;99.90;;;;;;4999327;28;90385;-33
2023/01/06 10:10:06;;;;;;;5.03;1.63;;;10.00;99.90;;;;;;4988737;28;89132;-33
2023/01/06 10:12:53;;;;;;;4.25;1.52;;;9.90;99.90;;;;;;4998109;28;88273;-32
2023/01/06 10:15:46;;;;;;;2.92;1.67;;;9.90;99.90;;;;;;4998806;28;90191;-34
2023/01/06 10:18:58;;;;;;;5.13;1.70;;;9.90;99.90;;;;;;4999178;28;89485;-35
2023/01/06 10:21:33;;;;;;;4.07;1.80;;;9.80;99.90;;;;;;4926296;28;89051;-33
2023/01/06 10:24:22;;;;;;;10.82;1.95;;;9.90;99.90;;;;;;4936796;28;88831;-35
2023/01/06 10:26:55;;;;;;;7.07;2.22;;;9.90;99.90;;;;;;4982564;28;89084;-34
2023/01/06 10:29:21;;;;;;;3.20;1.77;;;10.00;99.90;;;;;;4998872;28;91726;-32
2023/01/06 10:31:50;;;;;;;7.22;2.05;;;10.00;99.90;;;;;;4999201;28;89948;-35
2023/01/06 10:34:18;;;;;;;5.72;1.52;;;10.00;99.90;;;;;;5000214;28;89168;-34
2023/01/06 10:36:45;;;;;;;;;;;10.00;99.90;;;;;;4999076;28;90108;-34
2023/01/06 10:39:21;;;;;;;13.98;2.25;;;10.00;99.90;;;;;;5000521;28;89939;-34
2023/01/06 10:45:00;;;;;;;6.82;2.35;;;10.10;99.90;;;;;;4999944;28;89862;-32
2023/01/06 10:47:31;;;;;;;8.73;2.10;;;10.00;99.90;;;;;;4998082;28;89212;-33
2023/01/06 10:49:58;;;;;;;10.35;2.15;;;10.10;99.90;;;;;;4998529;28;89866;-33
2023/01/06 10:52:25;;;;;;;7.57;2.05;;;10.10;99.90;;;;;;4998429;28;89180;-34
2023/01/06 10:54:55;;;;;;;4.57;2.15;;;10.10;99.90;;;;;;4998191;28;89827;-34
2023/01/06 10:57:28;;;;;;;10.02;2.80;;;10.10;99.90;;;;;;4999305;28;90027;-32
2023/01/06 11:00:15;;;;;;;10.20;1.80;;;10.10;99.90;;;;;;4987473;28;89551;-34
2023/01/06 11:02:48;;;;;;;4.57;2.25;;;10.10;99.90;;;;;;4998322;28;89267;-33
2023/01/06 11:05:20;;;;;;;7.32;2.03;;;10.10;99.90;;;;;;4999197;28;89402;-33
2023/01/06 11:07:56;;;;;;;7.60;2.20;;;10.10;99.90;;;;;;4999176;28;89850;-33
2023/01/06 11:10:33;;;;;;;9.65;3.05;;;10.10;99.90;;;;;;4999058;28;89775;-34
2023/01/06 11:13:02;;;;;;;14.13;3.03;;;10.20;99.90;;;;;;4988393;28;89401;-33
2023/01/06 11:15:41;;;;;;;7.47;2.28;;;10.30;99.90;;;;;;4998238;28;89012;-33
2023/01/06 11:18:18;;;;;;;11.90;2.70;;;10.40;99.90;;;;;;4998503;28;90229;-32
2023/01/06 11:20:44;;;;;;;7.10;2.58;;;10.60;99.90;;;;;;4998165;28;90179;-34
2023/01/06 11:23:21;;;;;;;3.55;1.98;;;10.60;99.90;;;;;;4998867;28;90691;-33
2023/01/06 11:26:21;;;;;;;8.13;3.43;;;10.70;99.90;;;;;;4997948;28;88065;-35
2023/01/06 11:28:53;;;;;;;7.28;2.72;;;10.80;99.90;;;;;;4953361;28;90060;-34
2023/01/06 11:31:27;;;;;;;10.23;2.78;;;10.80;99.90;;;;;;5002337;28;89187;-33
2023/01/06 11:33:56;;;;;;;9.02;2.78;;;10.80;99.90;;;;;;5002509;28;90506;-34
2023/01/06 11:36:24;;;;;;;3.83;2.08;;;10.80;99.90;;;;;;5001686;28;87710;-34
2023/01/06 11:39:01;;;;;;;7.15;2.13;;;10.90;99.90;;;;;;5001395;28;90203;-34
2023/01/06 11:41:31;;;;;;;12.63;2.45;;;10.80;99.90;;;;;;5001665;28;89646;-36
2023/01/06 11:44:12;;;;;;;2.75;1.75;;;10.90;99.90;;;;;;5002196;28;90095;-34
2023/01/06 11:46:46;;;;;;;5.75;2.40;;;10.90;99.90;;;;;;5001946;28;89105;-33
2023/01/06 11:49:30;;;;;;;12.40;2.70;;;10.90;99.90;;;;;;5002072;28;90136;-35
2023/01/06 11:52:06;;;;;;;13.77;2.75;;;10.80;99.90;;;;;;5001966;28;89568;-34
2023/01/06 11:54:37;;;;;;;8.40;2.45;;;10.90;99.90;;;;;;5001868;28;89110;-33
2023/01/06 11:57:26;;;;;;;2.42;1.73;;;10.90;99.90;;;;;;5002340;28;89948;-33
2023/01/06 12:00:49;;;;;;;6.03;2.40;;;10.80;99.90;;;;;;5001507;28;90522;-36
2023/01/06 12:03:34;;;;;;;6.03;2.50;;;10.90;99.90;;;;;;4920364;28;90089;-33
2023/01/06 12:06:22;;;;;;;8.93;2.03;;;10.80;99.90;;;;;;4998790;28;89374;-36
2023/01/06 12:08:54;;;;;;;;;;;10.70;99.90;;;;;;5002407;28;88981;-35
2023/01/06 12:11:44;;;;;;;9.57;2.58;;;10.70;99.90;;;;;;5003555;28;90158;-35
2023/01/06 12:14:18;;;;;;;7.85;2.55;;;10.60;99.90;;;;;;5000891;28;90685;-34
2023/01/06 12:17:04;;;;;;;6.97;1.85;;;10.70;99.90;;;;;;5001296;28;89968;-33
2023/01/06 12:19:46;;;;;;;4.43;2.72;;;10.80;99.90;;;;;;5002152;28;88159;-34
2023/01/06 12:22:21;;;;;;;7.07;2.97;;;10.80;99.90;;;;;;5001788;28;91854;-34
2023/01/06 12:24:48;;;;;;;15.73;2.55;;;10.90;99.90;;;;;;5000834;28;89276;-35
2023/01/06 12:27:25;;;;;;;10.50;2.40;;;10.80;99.90;;;;;;4989285;28;89520;-34
2023/01/06 12:29:53;;;;;;;5.88;2.40;;;10.50;99.90;;;;;;5001846;28;90086;-35
2023/01/06 12:32:26;;;;;;;4.47;2.20;;;10.50;99.90;;;;;;5001877;28;90239;-33
2023/01/06 12:34:54;;;;;;;4.88;2.17;;;10.40;99.90;;;;;;5000923;28;89791;-35
2023/01/06 12:37:38;;;;;;;8.15;2.85;;;10.40;99.90;;;;;;5000476;28;89994;-35
2023/01/06 12:40:43;;;;;;;6.38;2.55;;;10.40;99.90;;;;;;5000139;28;90693;-34
2023/01/06 12:43:13;;;;;;;13.55;3.03;;;10.30;99.90;;;;;;5001080;28;90172;-36
2023/01/06 12:46:01;;;;;;;7.15;2.90;;;10.20;99.90;;;;;;5001171;28;89409;-33
2023/01/06 12:48:46;;;;;;;9.23;2.63;;;10.10;99.90;;;;;;5001335;28;89247;-34
2023/01/06 12:51:24;;;;;;;11.57;2.28;;;10.10;99.90;;;;;;5000975;28;89000;-33
2023/01/06 12:54:01;;;;;;;5.63;2.20;;;10.10;99.90;;;;;;5000832;28;90161;-33
2023/01/06 12:56:33;;;;;;;10.10;2.25;;;10.10;99.90;;;;;;5000720;28;90268;-33
2023/01/06 12:59:39;;;;;;;13.23;2.63;;;10.10;99.90;;;;;;5001777;28;90704;-33
2023/01/06 13:02:24;;;;;;;2.92;1.48;;;10.10;99.90;;;;;;4968653;28;88149;-33
2023/01/06 13:05:24;;;;;;;3.38;1.83;;;10.10;99.90;;;;;;4988244;28;90525;-35